sensor_id;sensor_type;location;lat;lon;timestamp;P1;durP1;ratioP1;P2;durP2;ratioP2
78877;SDS011;68257;43.514;1.498;2023-07-22T00:00:16;6.50;;;4.03;;
78877;SDS011;68257;43.514;1.498;2023-07-22T00:02:42;6.43;;;3.70;;
78877;SDS011;68257;43.514;1.498;2023-07-22T00:05:08;6.23;;;3.93;;
78877;SDS011;68257;43.514;1.498;2023-07-22T00:07:35;6.03;;;3.67;;
78877;SDS011;68257;43.514;1.498;2023-07-22T00:10:00;5.88;;;3.78;;
78877;SDS011;68257;43.514;1.498;2023-07-22T00:12:26;5.80;;;3.50;;
78877;SDS011;68257;43.514;1.498;2023-07-22T00:14:51;8.47;;;4.00;;
78877;SDS011;68257;43.514;1.498;2023-07-22T00:17:18;6.68;;;3.80;;
78877;SDS011;68257;43.514;1.498;2023-07-22T00:19:44;5.30;;;3.47;;
78877;SDS011;68257;43.514;1.498;2023-07-22T00:22:09;5.70;;;3.45;;
78877;SDS011;68257;43.514;1.498;2023-07-22T00:24:34;7.33;;;3.73;;
78877;SDS011;68257;43.514;1.498;2023-07-22T00:27:00;6.07;;;3.40;;
78877;SDS011;68257;43.514;1.498;2023-07-22T00:29:25;4.77;;;3.13;;
78877;SDS011;68257;43.514;1.498;2023-07-22T00:31:51;6.97;;;3.70;;
78877;SDS011;68257;43.514;1.498;2023-07-22T00:34:16;7.33;;;3.57;;
78877;SDS011;68257;43.514;1.498;2023-07-22T00:36:42;5.50;;;3.60;;
78877;SDS011;68257;43.514;1.498;2023-07-22T00:39:08;6.63;;;3.58;;
78877;SDS011;68257;43.514;1.498;2023-07-22T00:41:33;5.83;;;3.20;;
78877;SDS011;68257;43.514;1.498;2023-07-22T00:43:59;5.30;;;3.40;;
78877;SDS011;68257;43.514;1.498;2023-07-22T00:46:24;6.03;;;3.50;;
78877;SDS011;68257;43.514;1.498;2023-07-22T00:48:50;5.50;;;3.20;;
78877;SDS011;68257;43.514;1.498;2023-07-22T00:51:15;5.53;;;3.50;;
78877;SDS011;68257;43.514;1.498;2023-07-22T00:53:41;5.55;;;3.20;;
78877;SDS011;68257;43.514;1.498;2023-07-22T00:56:07;5.93;;;3.73;;
78877;SDS011;68257;43.514;1.498;2023-07-22T00:58:32;4.60;;;3.00;;
78877;SDS011;68257;43.514;1.498;2023-07-22T01:00:59;4.65;;;3.10;;
78877;SDS011;68257;43.514;1.498;2023-07-22T01:03:24;5.10;;;3.40;;
78877;SDS011;68257;43.514;1.498;2023-07-22T01:05:50;6.85;;;3.30;;
78877;SDS011;68257;43.514;1.498;2023-07-22T01:08:16;5.25;;;3.22;;
78877;SDS011;68257;43.514;1.498;2023-07-22T01:10:42;4.40;;;3.10;;
78877;SDS011;68257;43.514;1.498;2023-07-22T01:13:07;6.03;;;3.43;;
78877;SDS011;68257;43.514;1.498;2023-07-22T01:15:33;6.35;;;3.35;;
78877;SDS011;68257;43.514;1.498;2023-07-22T01:17:58;4.77;;;3.07;;
78877;SDS011;68257;43.514;1.498;2023-07-22T01:20:27;4.78;;;2.97;;
78877;SDS011;68257;43.514;1.498;2023-07-22T01:22:54;5.88;;;3.50;;
78877;SDS011;68257;43.514;1.498;2023-07-22T01:25:20;6.13;;;3.17;;
78877;SDS011;68257;43.514;1.498;2023-07-22T01:27:47;5.35;;;3.20;;
78877;SDS011;68257;43.514;1.498;2023-07-22T01:30:12;5.78;;;3.42;;
78877;SDS011;68257;43.514;1.498;2023-07-22T01:32:39;5.55;;;3.40;;
78877;SDS011;68257;43.514;1.498;2023-07-22T01:35:05;5.40;;;2.87;;
78877;SDS011;68257;43.514;1.498;2023-07-22T01:37:32;4.28;;;2.97;;
78877;SDS011;68257;43.514;1.498;2023-07-22T01:39:58;5.03;;;3.13;;
78877;SDS011;68257;43.514;1.498;2023-07-22T01:42:23;4.67;;;3.10;;
78877;SDS011;68257;43.514;1.498;2023-07-22T01:44:49;7.00;;;3.40;;
78877;SDS011;68257;43.514;1.498;2023-07-22T01:47:14;5.67;;;3.33;;
78877;SDS011;68257;43.514;1.498;2023-07-22T01:49:39;5.67;;;3.30;;
78877;SDS011;68257;43.514;1.498;2023-07-22T01:52:05;4.80;;;3.00;;
78877;SDS011;68257;43.514;1.498;2023-07-22T01:54:30;5.13;;;3.35;;
78877;SDS011;68257;43.514;1.498;2023-07-22T01:56:56;4.60;;;3.20;;
78877;SDS011;68257;43.514;1.498;2023-07-22T01:59:21;6.53;;;3.50;;
78877;SDS011;68257;43.514;1.498;2023-07-22T02:01:47;5.88;;;3.00;;
78877;SDS011;68257;43.514;1.498;2023-07-22T02:04:13;6.13;;;3.47;;
78877;SDS011;68257;43.514;1.498;2023-07-22T02:06:38;5.70;;;3.10;;
78877;SDS011;68257;43.514;1.498;2023-07-22T02:09:03;6.50;;;3.33;;
78877;SDS011;68257;43.514;1.498;2023-07-22T02:11:34;6.72;;;3.53;;
78877;SDS011;68257;43.514;1.498;2023-07-22T02:14:02;6.13;;;3.63;;
78877;SDS011;68257;43.514;1.498;2023-07-22T02:16:31;6.68;;;3.30;;
78877;SDS011;68257;43.514;1.498;2023-07-22T02:18:58;6.70;;;3.20;;
78877;SDS011;68257;43.514;1.498;2023-07-22T02:21:24;5.67;;;3.40;;
78877;SDS011;68257;43.514;1.498;2023-07-22T02:23:49;5.90;;;3.13;;
78877;SDS011;68257;43.514;1.498;2023-07-22T02:26:14;6.83;;;3.40;;
78877;SDS011;68257;43.514;1.498;2023-07-22T02:28:40;7.38;;;3.20;;
78877;SDS011;68257;43.514;1.498;2023-07-22T02:31:05;4.57;;;3.00;;
78877;SDS011;68257;43.514;1.498;2023-07-22T02:33:32;5.25;;;3.33;;
78877;SDS011;68257;43.514;1.498;2023-07-22T02:35:57;5.63;;;3.10;;
78877;SDS011;68257;43.514;1.498;2023-07-22T02:38:23;5.90;;;3.30;;
78877;SDS011;68257;43.514;1.498;2023-07-22T02:40:48;4.80;;;2.72;;
78877;SDS011;68257;43.514;1.498;2023-07-22T02:43:14;5.70;;;3.00;;
78877;SDS011;68257;43.514;1.498;2023-07-22T02:45:40;4.88;;;3.00;;
78877;SDS011;68257;43.514;1.498;2023-07-22T02:48:06;4.93;;;3.00;;
78877;SDS011;68257;43.514;1.498;2023-07-22T02:50:31;4.67;;;3.10;;
78877;SDS011;68257;43.514;1.498;2023-07-22T02:52:56;6.57;;;3.20;;
78877;SDS011;68257;43.514;1.498;2023-07-22T02:55:22;7.10;;;3.00;;
78877;SDS011;68257;43.514;1.498;2023-07-22T02:57:48;4.87;;;2.90;;
78877;SDS011;68257;43.514;1.498;2023-07-22T03:00:14;4.93;;;2.72;;
78877;SDS011;68257;43.514;1.498;2023-07-22T03:02:52;4.53;;;2.58;;
78877;SDS011;68257;43.514;1.498;2023-07-22T03:05:19;5.03;;;2.75;;
78877;SDS011;68257;43.514;1.498;2023-07-22T03:07:45;5.47;;;3.10;;
78877;SDS011;68257;43.514;1.498;2023-07-22T03:10:10;4.63;;;2.85;;
78877;SDS011;68257;43.514;1.498;2023-07-22T03:12:36;4.80;;;2.70;;
78877;SDS011;68257;43.514;1.498;2023-07-22T03:15:02;5.57;;;2.80;;
78877;SDS011;68257;43.514;1.498;2023-07-22T03:17:29;4.70;;;3.10;;
78877;SDS011;68257;43.514;1.498;2023-07-22T03:19:54;4.95;;;2.80;;
78877;SDS011;68257;43.514;1.498;2023-07-22T03:22:20;5.17;;;2.90;;
78877;SDS011;68257;43.514;1.498;2023-07-22T03:24:45;5.20;;;2.90;;
78877;SDS011;68257;43.514;1.498;2023-07-22T03:27:11;5.82;;;2.78;;
78877;SDS011;68257;43.514;1.498;2023-07-22T03:29:37;5.00;;;2.90;;
78877;SDS011;68257;43.514;1.498;2023-07-22T03:32:03;5.53;;;3.10;;
78877;SDS011;68257;43.514;1.498;2023-07-22T03:34:30;6.27;;;2.93;;
78877;SDS011;68257;43.514;1.498;2023-07-22T03:36:56;5.22;;;3.00;;
78877;SDS011;68257;43.514;1.498;2023-07-22T03:39:22;5.80;;;3.10;;
78877;SDS011;68257;43.514;1.498;2023-07-22T03:41:47;5.33;;;3.80;;
78877;SDS011;68257;43.514;1.498;2023-07-22T03:44:13;6.20;;;3.20;;
78877;SDS011;68257;43.514;1.498;2023-07-22T03:46:38;5.90;;;3.20;;
78877;SDS011;68257;43.514;1.498;2023-07-22T03:49:04;5.25;;;3.05;;
78877;SDS011;68257;43.514;1.498;2023-07-22T03:51:29;6.10;;;3.60;;
78877;SDS011;68257;43.514;1.498;2023-07-22T03:53:55;5.22;;;3.20;;
78877;SDS011;68257;43.514;1.498;2023-07-22T03:56:21;5.57;;;3.20;;
78877;SDS011;68257;43.514;1.498;2023-07-22T03:58:49;5.13;;;2.88;;
78877;SDS011;68257;43.514;1.498;2023-07-22T04:01:15;5.93;;;3.10;;
78877;SDS011;68257;43.514;1.498;2023-07-22T04:03:40;5.50;;;3.20;;
78877;SDS011;68257;43.514;1.498;2023-07-22T04:06:06;6.13;;;3.03;;
78877;SDS011;68257;43.514;1.498;2023-07-22T04:08:31;5.70;;;3.20;;
78877;SDS011;68257;43.514;1.498;2023-07-22T04:10:57;4.93;;;2.80;;
78877;SDS011;68257;43.514;1.498;2023-07-22T04:13:23;4.70;;;3.13;;
78877;SDS011;68257;43.514;1.498;2023-07-22T04:15:49;5.07;;;2.95;;
78877;SDS011;68257;43.514;1.498;2023-07-22T04:18:15;5.70;;;3.00;;
78877;SDS011;68257;43.514;1.498;2023-07-22T04:20:41;4.55;;;3.20;;
78877;SDS011;68257;43.514;1.498;2023-07-22T04:23:07;6.30;;;2.90;;
78877;SDS011;68257;43.514;1.498;2023-07-22T04:25:32;4.97;;;2.93;;
78877;SDS011;68257;43.514;1.498;2023-07-22T04:27:58;5.88;;;2.80;;
78877;SDS011;68257;43.514;1.498;2023-07-22T04:30:24;5.13;;;3.00;;
78877;SDS011;68257;43.514;1.498;2023-07-22T04:32:49;4.90;;;2.80;;
78877;SDS011;68257;43.514;1.498;2023-07-22T04:35:18;6.97;;;3.10;;
78877;SDS011;68257;43.514;1.498;2023-07-22T04:37:44;4.33;;;2.83;;
78877;SDS011;68257;43.514;1.498;2023-07-22T04:40:10;5.65;;;2.95;;
78877;SDS011;68257;43.514;1.498;2023-07-22T04:42:39;4.70;;;2.80;;
78877;SDS011;68257;43.514;1.498;2023-07-22T04:45:06;7.88;;;2.80;;
78877;SDS011;68257;43.514;1.498;2023-07-22T04:47:31;6.63;;;3.40;;
78877;SDS011;68257;43.514;1.498;2023-07-22T04:49:57;6.22;;;3.00;;
78877;SDS011;68257;43.514;1.498;2023-07-22T04:52:22;5.57;;;2.90;;
78877;SDS011;68257;43.514;1.498;2023-07-22T04:54:48;6.53;;;2.80;;
78877;SDS011;68257;43.514;1.498;2023-07-22T04:57:13;4.33;;;2.87;;
78877;SDS011;68257;43.514;1.498;2023-07-22T04:59:38;5.57;;;2.80;;
78877;SDS011;68257;43.514;1.498;2023-07-22T05:02:04;4.88;;;2.75;;
78877;SDS011;68257;43.514;1.498;2023-07-22T05:04:29;5.47;;;3.03;;
78877;SDS011;68257;43.514;1.498;2023-07-22T05:06:54;4.90;;;2.63;;
78877;SDS011;68257;43.514;1.498;2023-07-22T05:09:20;6.20;;;3.00;;
78877;SDS011;68257;43.514;1.498;2023-07-22T05:11:45;6.10;;;2.90;;
78877;SDS011;68257;43.514;1.498;2023-07-22T05:14:11;4.53;;;2.67;;
78877;SDS011;68257;43.514;1.498;2023-07-22T05:16:36;5.10;;;2.70;;
78877;SDS011;68257;43.514;1.498;2023-07-22T05:19:02;6.40;;;2.80;;
78877;SDS011;68257;43.514;1.498;2023-07-22T05:21:27;4.57;;;2.72;;
78877;SDS011;68257;43.514;1.498;2023-07-22T05:23:52;4.53;;;3.00;;
78877;SDS011;68257;43.514;1.498;2023-07-22T05:26:18;5.30;;;2.90;;
78877;SDS011;68257;43.514;1.498;2023-07-22T05:28:43;5.90;;;2.80;;
78877;SDS011;68257;43.514;1.498;2023-07-22T05:31:09;4.17;;;2.53;;
78877;SDS011;68257;43.514;1.498;2023-07-22T05:33:34;5.20;;;2.80;;
78877;SDS011;68257;43.514;1.498;2023-07-22T05:36:00;5.05;;;2.70;;
78877;SDS011;68257;43.514;1.498;2023-07-22T05:38:26;5.07;;;2.70;;
78877;SDS011;68257;43.514;1.498;2023-07-22T05:40:52;4.57;;;2.83;;
78877;SDS011;68257;43.514;1.498;2023-07-22T05:43:18;4.60;;;2.70;;
78877;SDS011;68257;43.514;1.498;2023-07-22T05:45:43;4.80;;;2.80;;
78877;SDS011;68257;43.514;1.498;2023-07-22T05:48:09;5.07;;;2.80;;
78877;SDS011;68257;43.514;1.498;2023-07-22T05:50:34;4.67;;;2.60;;
78877;SDS011;68257;43.514;1.498;2023-07-22T05:52:59;5.07;;;2.57;;
78877;SDS011;68257;43.514;1.498;2023-07-22T05:55:25;5.57;;;2.80;;
78877;SDS011;68257;43.514;1.498;2023-07-22T05:57:51;8.02;;;2.90;;
78877;SDS011;68257;43.514;1.498;2023-07-22T06:00:17;5.53;;;2.70;;
78877;SDS011;68257;43.514;1.498;2023-07-22T06:02:42;5.43;;;2.80;;
78877;SDS011;68257;43.514;1.498;2023-07-22T06:05:08;5.40;;;2.90;;
78877;SDS011;68257;43.514;1.498;2023-07-22T06:07:33;5.77;;;2.40;;
78877;SDS011;68257;43.514;1.498;2023-07-22T06:09:59;4.73;;;2.50;;
78877;SDS011;68257;43.514;1.498;2023-07-22T06:12:24;4.57;;;2.70;;
78877;SDS011;68257;43.514;1.498;2023-07-22T06:14:49;6.30;;;2.67;;
78877;SDS011;68257;43.514;1.498;2023-07-22T06:17:15;4.90;;;2.70;;
78877;SDS011;68257;43.514;1.498;2023-07-22T06:19:40;5.73;;;2.67;;
78877;SDS011;68257;43.514;1.498;2023-07-22T06:22:06;5.33;;;2.67;;
78877;SDS011;68257;43.514;1.498;2023-07-22T06:24:31;4.70;;;2.50;;
78877;SDS011;68257;43.514;1.498;2023-07-22T06:26:56;6.10;;;2.70;;
78877;SDS011;68257;43.514;1.498;2023-07-22T06:29:22;4.77;;;2.60;;
78877;SDS011;68257;43.514;1.498;2023-07-22T06:31:47;6.23;;;2.70;;
78877;SDS011;68257;43.514;1.498;2023-07-22T06:34:12;4.50;;;2.40;;
78877;SDS011;68257;43.514;1.498;2023-07-22T06:36:38;4.13;;;2.40;;
78877;SDS011;68257;43.514;1.498;2023-07-22T06:39:03;5.45;;;2.60;;
78877;SDS011;68257;43.514;1.498;2023-07-22T06:41:29;5.60;;;2.30;;
78877;SDS011;68257;43.514;1.498;2023-07-22T06:43:54;7.27;;;2.70;;
78877;SDS011;68257;43.514;1.498;2023-07-22T06:46:22;4.38;;;2.55;;
78877;SDS011;68257;43.514;1.498;2023-07-22T06:48:48;4.93;;;2.60;;
78877;SDS011;68257;43.514;1.498;2023-07-22T06:51:13;6.63;;;2.70;;
78877;SDS011;68257;43.514;1.498;2023-07-22T06:53:38;4.90;;;2.43;;
78877;SDS011;68257;43.514;1.498;2023-07-22T06:56:04;5.07;;;2.60;;
78877;SDS011;68257;43.514;1.498;2023-07-22T06:58:29;5.80;;;2.40;;
78877;SDS011;68257;43.514;1.498;2023-07-22T07:00:55;4.77;;;2.60;;
78877;SDS011;68257;43.514;1.498;2023-07-22T07:03:21;5.35;;;2.40;;
78877;SDS011;68257;43.514;1.498;2023-07-22T07:05:56;5.80;;;2.70;;
78877;SDS011;68257;43.514;1.498;2023-07-22T07:08:22;3.85;;;2.40;;
78877;SDS011;68257;43.514;1.498;2023-07-22T07:10:48;5.65;;;2.78;;
78877;SDS011;68257;43.514;1.498;2023-07-22T07:13:14;5.65;;;2.60;;
78877;SDS011;68257;43.514;1.498;2023-07-22T07:15:39;4.80;;;2.40;;
78877;SDS011;68257;43.514;1.498;2023-07-22T07:18:05;4.40;;;2.53;;
78877;SDS011;68257;43.514;1.498;2023-07-22T07:20:30;4.95;;;2.72;;
78877;SDS011;68257;43.514;1.498;2023-07-22T07:22:55;5.80;;;2.80;;
78877;SDS011;68257;43.514;1.498;2023-07-22T07:25:21;4.13;;;2.60;;
78877;SDS011;68257;43.514;1.498;2023-07-22T07:27:46;5.23;;;2.77;;
78877;SDS011;68257;43.514;1.498;2023-07-22T07:30:12;5.05;;;2.63;;
78877;SDS011;68257;43.514;1.498;2023-07-22T07:32:37;4.30;;;2.30;;
78877;SDS011;68257;43.514;1.498;2023-07-22T07:35:03;6.87;;;2.40;;
78877;SDS011;68257;43.514;1.498;2023-07-22T07:37:29;7.65;;;3.00;;
78877;SDS011;68257;43.514;1.498;2023-07-22T07:39:54;4.63;;;2.40;;
78877;SDS011;68257;43.514;1.498;2023-07-22T07:42:24;4.38;;;2.67;;
78877;SDS011;68257;43.514;1.498;2023-07-22T07:44:51;4.95;;;2.22;;
78877;SDS011;68257;43.514;1.498;2023-07-22T07:47:16;4.67;;;2.50;;
78877;SDS011;68257;43.514;1.498;2023-07-22T07:49:42;4.73;;;2.30;;
78877;SDS011;68257;43.514;1.498;2023-07-22T07:52:07;4.87;;;2.70;;
78877;SDS011;68257;43.514;1.498;2023-07-22T07:54:32;5.07;;;2.55;;
78877;SDS011;68257;43.514;1.498;2023-07-22T07:56:58;5.17;;;2.50;;
78877;SDS011;68257;43.514;1.498;2023-07-22T07:59:23;4.33;;;2.30;;
78877;SDS011;68257;43.514;1.498;2023-07-22T08:01:48;5.60;;;2.37;;
78877;SDS011;68257;43.514;1.498;2023-07-22T08:04:14;3.43;;;2.00;;
78877;SDS011;68257;43.514;1.498;2023-07-22T08:06:39;4.97;;;2.38;;
78877;SDS011;68257;43.514;1.498;2023-07-22T08:09:06;5.45;;;2.30;;
78877;SDS011;68257;43.514;1.498;2023-07-22T08:11:31;4.97;;;2.20;;
78877;SDS011;68257;43.514;1.498;2023-07-22T08:13:56;5.07;;;2.40;;
78877;SDS011;68257;43.514;1.498;2023-07-22T08:16:22;3.93;;;2.33;;
78877;SDS011;68257;43.514;1.498;2023-07-22T08:18:47;5.03;;;2.42;;
78877;SDS011;68257;43.514;1.498;2023-07-22T08:21:13;4.43;;;2.37;;
78877;SDS011;68257;43.514;1.498;2023-07-22T08:23:38;10.30;;;2.77;;
78877;SDS011;68257;43.514;1.498;2023-07-22T08:26:04;4.83;;;2.60;;
78877;SDS011;68257;43.514;1.498;2023-07-22T08:28:33;4.43;;;2.58;;
78877;SDS011;68257;43.514;1.498;2023-07-22T08:30:59;4.82;;;2.30;;
78877;SDS011;68257;43.514;1.498;2023-07-22T08:33:25;3.78;;;2.20;;
78877;SDS011;68257;43.514;1.498;2023-07-22T08:35:51;4.73;;;2.30;;
78877;SDS011;68257;43.514;1.498;2023-07-22T08:38:17;15.98;;;3.20;;
78877;SDS011;68257;43.514;1.498;2023-07-22T08:40:43;4.07;;;2.50;;
78877;SDS011;68257;43.514;1.498;2023-07-22T08:43:09;6.60;;;2.67;;
78877;SDS011;68257;43.514;1.498;2023-07-22T08:45:36;4.78;;;2.25;;
78877;SDS011;68257;43.514;1.498;2023-07-22T08:48:03;5.35;;;2.40;;
78877;SDS011;68257;43.514;1.498;2023-07-22T08:50:35;4.05;;;2.28;;
78877;SDS011;68257;43.514;1.498;2023-07-22T08:53:06;6.35;;;2.47;;
78877;SDS011;68257;43.514;1.498;2023-07-22T08:55:32;5.57;;;2.53;;
78877;SDS011;68257;43.514;1.498;2023-07-22T08:57:59;5.35;;;2.35;;
78877;SDS011;68257;43.514;1.498;2023-07-22T09:00:25;5.72;;;2.60;;
78877;SDS011;68257;43.514;1.498;2023-07-22T09:02:51;5.57;;;2.73;;
78877;SDS011;68257;43.514;1.498;2023-07-22T09:05:16;5.65;;;2.42;;
78877;SDS011;68257;43.514;1.498;2023-07-22T09:07:42;6.10;;;2.77;;
78877;SDS011;68257;43.514;1.498;2023-07-22T09:10:08;6.93;;;2.58;;
78877;SDS011;68257;43.514;1.498;2023-07-22T09:12:34;4.68;;;2.63;;
78877;SDS011;68257;43.514;1.498;2023-07-22T09:15:14;5.05;;;2.67;;
78877;SDS011;68257;43.514;1.498;2023-07-22T09:17:40;4.95;;;2.83;;
78877;SDS011;68257;43.514;1.498;2023-07-22T09:20:06;5.83;;;2.60;;
78877;SDS011;68257;43.514;1.498;2023-07-22T09:22:32;5.47;;;2.35;;
78877;SDS011;68257;43.514;1.498;2023-07-22T09:27:47;4.65;;;2.63;;
78877;SDS011;68257;43.514;1.498;2023-07-22T09:32:48;5.22;;;2.60;;
78877;SDS011;68257;43.514;1.498;2023-07-22T09:35:14;4.85;;;2.58;;
78877;SDS011;68257;43.514;1.498;2023-07-22T09:37:40;4.67;;;2.53;;
78877;SDS011;68257;43.514;1.498;2023-07-22T09:40:18;10.60;;;2.87;;
78877;SDS011;68257;43.514;1.498;2023-07-22T09:42:52;6.65;;;2.97;;
78877;SDS011;68257;43.514;1.498;2023-07-22T09:45:18;7.10;;;2.63;;
78877;SDS011;68257;43.514;1.498;2023-07-22T09:47:45;5.43;;;2.83;;
78877;SDS011;68257;43.514;1.498;2023-07-22T09:50:15;4.20;;;2.90;;
78877;SDS011;68257;43.514;1.498;2023-07-22T09:52:45;5.40;;;2.90;;
78877;SDS011;68257;43.514;1.498;2023-07-22T09:55:21;9.10;;;2.70;;
78877;SDS011;68257;43.514;1.498;2023-07-22T09:57:55;4.20;;;2.50;;
78877;SDS011;68257;43.514;1.498;2023-07-22T10:00:23;4.30;;;2.50;;
78877;SDS011;68257;43.514;1.498;2023-07-22T10:02:51;4.90;;;2.60;;
78877;SDS011;68257;43.514;1.498;2023-07-22T10:05:17;5.07;;;2.50;;
78877;SDS011;68257;43.514;1.498;2023-07-22T10:07:55;3.95;;;2.83;;
78877;SDS011;68257;43.514;1.498;2023-07-22T10:10:37;4.53;;;2.80;;
78877;SDS011;68257;43.514;1.498;2023-07-22T10:13:03;6.03;;;3.00;;
78877;SDS011;68257;43.514;1.498;2023-07-22T10:15:30;4.17;;;2.83;;
78877;SDS011;68257;43.514;1.498;2023-07-22T10:17:56;5.07;;;3.13;;
78877;SDS011;68257;43.514;1.498;2023-07-22T10:20:22;5.00;;;2.73;;
78877;SDS011;68257;43.514;1.498;2023-07-22T10:22:49;5.65;;;3.00;;
78877;SDS011;68257;43.514;1.498;2023-07-22T10:25:15;5.95;;;2.90;;
78877;SDS011;68257;43.514;1.498;2023-07-22T10:27:42;6.07;;;2.97;;
78877;SDS011;68257;43.514;1.498;2023-07-22T10:30:11;4.67;;;2.70;;
78877;SDS011;68257;43.514;1.498;2023-07-22T10:32:39;5.63;;;2.80;;
78877;SDS011;68257;43.514;1.498;2023-07-22T10:35:12;3.67;;;2.85;;
78877;SDS011;68257;43.514;1.498;2023-07-22T10:37:44;4.55;;;2.90;;
78877;SDS011;68257;43.514;1.498;2023-07-22T10:42:50;4.83;;;3.00;;
78877;SDS011;68257;43.514;1.498;2023-07-22T10:48:06;6.07;;;3.22;;
78877;SDS011;68257;43.514;1.498;2023-07-22T10:50:39;7.05;;;3.78;;
78877;SDS011;68257;43.514;1.498;2023-07-22T10:53:06;4.95;;;4.00;;
78877;SDS011;68257;43.514;1.498;2023-07-22T10:55:38;5.10;;;4.20;;
78877;SDS011;68257;43.514;1.498;2023-07-22T11:01:43;5.72;;;4.00;;
78877;SDS011;68257;43.514;1.498;2023-07-22T11:06:33;5.65;;;4.60;;
78877;SDS011;68257;43.514;1.498;2023-07-22T11:08:59;5.63;;;4.40;;
78877;SDS011;68257;43.514;1.498;2023-07-22T11:11:58;5.03;;;4.30;;
78877;SDS011;68257;43.514;1.498;2023-07-22T11:14:16;5.03;;;4.53;;
78877;SDS011;68257;43.514;1.498;2023-07-22T11:16:44;5.13;;;3.58;;
78877;SDS011;68257;43.514;1.498;2023-07-22T11:19:10;5.00;;;4.50;;
78877;SDS011;68257;43.514;1.498;2023-07-22T11:21:36;4.80;;;3.70;;
78877;SDS011;68257;43.514;1.498;2023-07-22T11:24:03;5.15;;;4.03;;
78877;SDS011;68257;43.514;1.498;2023-07-22T11:26:29;4.73;;;3.60;;
78877;SDS011;68257;43.514;1.498;2023-07-22T11:28:55;5.63;;;4.35;;
78877;SDS011;68257;43.514;1.498;2023-07-22T11:31:20;6.13;;;4.13;;
78877;SDS011;68257;43.514;1.498;2023-07-22T11:33:46;5.47;;;4.40;;
78877;SDS011;68257;43.514;1.498;2023-07-22T11:36:12;5.60;;;4.63;;
78877;SDS011;68257;43.514;1.498;2023-07-22T11:38:38;3.88;;;3.28;;
78877;SDS011;68257;43.514;1.498;2023-07-22T11:41:04;6.03;;;4.10;;
78877;SDS011;68257;43.514;1.498;2023-07-22T11:43:29;4.90;;;4.40;;
78877;SDS011;68257;43.514;1.498;2023-07-22T11:45:54;5.33;;;4.83;;
78877;SDS011;68257;43.514;1.498;2023-07-22T11:48:20;5.33;;;4.83;;
78877;SDS011;68257;43.514;1.498;2023-07-22T11:50:45;5.37;;;4.63;;
78877;SDS011;68257;43.514;1.498;2023-07-22T11:53:11;5.82;;;4.75;;
78877;SDS011;68257;43.514;1.498;2023-07-22T11:55:36;5.27;;;4.77;;
78877;SDS011;68257;43.514;1.498;2023-07-22T11:58:03;5.50;;;5.00;;
78877;SDS011;68257;43.514;1.498;2023-07-22T12:00:28;6.37;;;5.53;;
78877;SDS011;68257;43.514;1.498;2023-07-22T12:02:54;6.63;;;5.03;;
78877;SDS011;68257;43.514;1.498;2023-07-22T12:05:22;5.50;;;4.47;;
78877;SDS011;68257;43.514;1.498;2023-07-22T12:07:47;5.65;;;4.45;;
78877;SDS011;68257;43.514;1.498;2023-07-22T12:10:13;6.10;;;4.53;;
78877;SDS011;68257;43.514;1.498;2023-07-22T12:12:44;5.30;;;4.40;;
78877;SDS011;68257;43.514;1.498;2023-07-22T12:15:18;4.90;;;3.88;;
78877;SDS011;68257;43.514;1.498;2023-07-22T12:17:58;5.67;;;5.10;;
78877;SDS011;68257;43.514;1.498;2023-07-22T12:20:25;5.22;;;4.72;;
78877;SDS011;68257;43.514;1.498;2023-07-22T12:22:53;5.78;;;4.68;;
78877;SDS011;68257;43.514;1.498;2023-07-22T12:25:19;5.22;;;4.50;;
78877;SDS011;68257;43.514;1.498;2023-07-22T12:27:45;6.40;;;5.20;;
78877;SDS011;68257;43.514;1.498;2023-07-22T12:30:10;5.60;;;5.10;;
78877;SDS011;68257;43.514;1.498;2023-07-22T12:32:36;5.70;;;5.15;;
78877;SDS011;68257;43.514;1.498;2023-07-22T12:35:02;6.07;;;5.47;;
78877;SDS011;68257;43.514;1.498;2023-07-22T12:37:28;6.18;;;5.65;;
78877;SDS011;68257;43.514;1.498;2023-07-22T12:39:54;5.73;;;5.23;;
78877;SDS011;68257;43.514;1.498;2023-07-22T12:42:19;6.17;;;5.57;;
78877;SDS011;68257;43.514;1.498;2023-07-22T12:44:45;5.83;;;5.33;;
78877;SDS011;68257;43.514;1.498;2023-07-22T12:47:11;6.27;;;5.67;;
78877;SDS011;68257;43.514;1.498;2023-07-22T12:49:36;5.80;;;5.22;;
78877;SDS011;68257;43.514;1.498;2023-07-22T12:52:02;5.13;;;4.37;;
78877;SDS011;68257;43.514;1.498;2023-07-22T12:54:32;6.20;;;5.60;;
78877;SDS011;68257;43.514;1.498;2023-07-22T12:56:58;5.43;;;4.73;;
78877;SDS011;68257;43.514;1.498;2023-07-22T12:59:23;7.28;;;5.70;;
78877;SDS011;68257;43.514;1.498;2023-07-22T13:01:48;6.03;;;5.47;;
78877;SDS011;68257;43.514;1.498;2023-07-22T13:04:14;5.73;;;5.13;;
78877;SDS011;68257;43.514;1.498;2023-07-22T13:06:39;6.10;;;5.50;;
78877;SDS011;68257;43.514;1.498;2023-07-22T13:09:05;5.60;;;5.10;;
78877;SDS011;68257;43.514;1.498;2023-07-22T13:11:30;5.38;;;4.60;;
78877;SDS011;68257;43.514;1.498;2023-07-22T13:13:55;6.73;;;6.03;;
78877;SDS011;68257;43.514;1.498;2023-07-22T13:16:21;6.53;;;5.93;;
78877;SDS011;68257;43.514;1.498;2023-07-22T13:18:46;6.37;;;5.83;;
78877;SDS011;68257;43.514;1.498;2023-07-22T13:21:12;7.27;;;6.57;;
78877;SDS011;68257;43.514;1.498;2023-07-22T13:23:37;6.55;;;5.60;;
78877;SDS011;68257;43.514;1.498;2023-07-22T13:26:02;7.00;;;6.30;;
78877;SDS011;68257;43.514;1.498;2023-07-22T13:28:28;7.00;;;6.40;;
78877;SDS011;68257;43.514;1.498;2023-07-22T13:30:53;6.37;;;5.87;;
78877;SDS011;68257;43.514;1.498;2023-07-22T13:33:18;7.00;;;6.40;;
78877;SDS011;68257;43.514;1.498;2023-07-22T13:35:44;7.18;;;6.47;;
78877;SDS011;68257;43.514;1.498;2023-07-22T13:38:09;7.00;;;6.40;;
78877;SDS011;68257;43.514;1.498;2023-07-22T13:40:35;7.13;;;6.53;;
78877;SDS011;68257;43.514;1.498;2023-07-22T13:43:01;7.28;;;6.68;;
78877;SDS011;68257;43.514;1.498;2023-07-22T13:45:26;7.73;;;7.03;;
78877;SDS011;68257;43.514;1.498;2023-07-22T13:47:51;7.77;;;6.97;;
78877;SDS011;68257;43.514;1.498;2023-07-22T13:50:17;7.50;;;6.90;;
78877;SDS011;68257;43.514;1.498;2023-07-22T13:52:43;7.93;;;7.23;;
78877;SDS011;68257;43.514;1.498;2023-07-22T13:55:09;7.70;;;6.80;;
78877;SDS011;68257;43.514;1.498;2023-07-22T13:57:35;7.40;;;6.80;;
78877;SDS011;68257;43.514;1.498;2023-07-22T14:00:00;7.73;;;7.03;;
78877;SDS011;68257;43.514;1.498;2023-07-22T14:02:26;10.10;;;6.90;;
78877;SDS011;68257;43.514;1.498;2023-07-22T14:04:51;6.87;;;6.27;;
78877;SDS011;68257;43.514;1.498;2023-07-22T14:07:16;7.05;;;6.38;;
78877;SDS011;68257;43.514;1.498;2023-07-22T14:09:42;7.90;;;7.20;;
78877;SDS011;68257;43.514;1.498;2023-07-22T14:12:08;7.38;;;6.78;;
78877;SDS011;68257;43.514;1.498;2023-07-22T14:14:34;7.45;;;6.88;;
78877;SDS011;68257;43.514;1.498;2023-07-22T14:16:59;7.73;;;7.03;;
78877;SDS011;68257;43.514;1.498;2023-07-22T14:19:25;7.17;;;6.57;;
78877;SDS011;68257;43.514;1.498;2023-07-22T14:21:50;8.50;;;6.57;;
78877;SDS011;68257;43.514;1.498;2023-07-22T14:24:16;7.60;;;6.90;;
78877;SDS011;68257;43.514;1.498;2023-07-22T14:26:41;9.67;;;6.80;;
78877;SDS011;68257;43.514;1.498;2023-07-22T14:29:06;6.90;;;6.20;;
78877;SDS011;68257;43.514;1.498;2023-07-22T14:31:32;7.13;;;6.43;;
78877;SDS011;68257;43.514;1.498;2023-07-22T14:33:57;7.30;;;6.50;;
78877;SDS011;68257;43.514;1.498;2023-07-22T14:36:23;7.80;;;7.10;;
78877;SDS011;68257;43.514;1.498;2023-07-22T14:38:49;7.55;;;6.85;;
78877;SDS011;68257;43.514;1.498;2023-07-22T14:41:15;6.93;;;6.23;;
78877;SDS011;68257;43.514;1.498;2023-07-22T14:43:41;7.50;;;6.80;;
78877;SDS011;68257;43.514;1.498;2023-07-22T14:46:06;8.43;;;7.20;;
78877;SDS011;68257;43.514;1.498;2023-07-22T14:48:32;8.40;;;7.10;;
78877;SDS011;68257;43.514;1.498;2023-07-22T14:50:57;7.33;;;6.67;;
78877;SDS011;68257;43.514;1.498;2023-07-22T14:53:23;9.17;;;7.10;;
78877;SDS011;68257;43.514;1.498;2023-07-22T14:55:48;7.53;;;6.83;;
78877;SDS011;68257;43.514;1.498;2023-07-22T14:58:13;6.60;;;6.00;;